Time;durP1;ratioP1;P1;durP2;ratioP2;P2;SDS_P1;SDS_P2;PMS_P1;PMS_P2;Temp;Humidity;BMP_temperature;BMP_pressure;BME280_temperature;BME280_humidity;BME280_pressure;Samples;Min_cycle;Max_cycle;Signal;HPM_P1;HPM_P2
2022/05/23 00:01:21;;;;;;;2.90;2.30;;;19.90;99.90;;;;;;4977125;28;20413;-83
2022/05/23 00:03:47;;;;;;;7.97;2.50;;;19.80;99.90;;;;;;4977070;28;20185;-83
2022/05/23 00:06:21;;;;;;;3.50;2.17;;;19.70;99.90;;;;;;4976816;28;20798;-83
2022/05/23 00:08:49;;;;;;;3.33;2.20;;;19.70;99.90;;;;;;4976711;28;20425;-83
2022/05/23 00:11:20;;;;;;;4.40;2.50;;;19.60;99.90;;;;;;4976807;28;20421;-83
2022/05/23 00:13:47;;;;;;;2.93;2.00;;;19.50;99.90;;;;;;4976725;28;20421;-83
2022/05/23 00:16:19;;;;;;;3.00;2.10;;;19.40;99.90;;;;;;4976479;28;20499;-83
2022/05/23 00:18:45;;;;;;;3.13;2.23;;;19.40;99.90;;;;;;4976652;28;20417;-83
2022/05/23 00:21:11;;;;;;;4.13;1.97;;;19.40;99.90;;;;;;4976812;28;20771;-83
2022/05/23 00:23:37;;;;;;;3.03;2.27;;;19.30;99.90;;;;;;4976334;28;20421;-83
2022/05/23 00:26:04;;;;;;;2.80;2.20;;;19.30;99.90;;;;;;4976687;28;20421;-83
2022/05/23 00:28:30;;;;;;;5.93;2.97;;;19.30;99.90;;;;;;4976391;28;20225;-83
2022/05/23 00:30:55;;;;;;;3.67;2.60;;;19.30;99.90;;;;;;4976631;28;20496;-83
2022/05/23 00:36:05;;;;;;;4.70;2.93;;;19.20;99.90;;;;;;4993828;28;20173;-83
2022/05/23 00:38:31;;;;;;;3.43;2.00;;;19.20;99.90;;;;;;4992404;28;21034;-83
2022/05/23 00:44:02;;;;;;;3.73;2.40;;;19.10;99.90;;;;;;4994159;28;20542;-83
2022/05/23 00:46:28;;;;;;;4.10;2.47;;;19.20;99.90;;;;;;4976024;28;20405;-83
2022/05/23 00:48:57;;;;;;;3.50;2.73;;;19.20;99.90;;;;;;4976188;28;20926;-83
2022/05/23 00:51:23;;;;;;;3.70;2.57;;;19.20;99.90;;;;;;4976249;28;20484;-83
2022/05/23 00:53:53;;;;;;;3.50;2.30;;;19.20;99.90;;;;;;4975958;28;20472;-83
2022/05/23 00:56:22;;;;;;;3.73;2.57;;;19.30;99.90;;;;;;4975598;28;20177;-83
2022/05/23 00:58:56;;;;;;;3.73;2.57;;;19.30;99.90;;;;;;4975876;28;20515;-83
2022/05/23 01:01:25;;;;;;;5.20;2.80;;;19.30;99.90;;;;;;4975861;28;20408;-83
2022/05/23 01:03:51;;;;;;;3.40;2.30;;;19.30;99.90;;;;;;4975763;28;20421;-83
2022/05/23 01:06:17;;;;;;;3.90;2.20;;;19.30;99.90;;;;;;4975550;28;20472;-83
2022/05/23 01:08:46;;;;;;;3.40;2.23;;;19.30;99.90;;;;;;4975867;28;20464;-83
2022/05/23 01:11:13;;;;;;;4.60;2.10;;;19.30;99.90;;;;;;4975815;28;20983;-83
2022/05/23 01:13:39;;;;;;;4.23;2.23;;;19.30;99.90;;;;;;4975746;28;20436;-83
2022/05/23 01:16:06;;;;;;;3.83;2.20;;;19.30;99.90;;;;;;4975595;28;20913;-82
2022/05/23 01:18:32;;;;;;;4.43;2.13;;;19.40;99.90;;;;;;4975428;28;20539;-83
2022/05/23 01:21:02;;;;;;;4.97;2.33;;;19.40;99.90;;;;;;4975972;28;20998;-83
2022/05/23 01:23:50;;;;;;;3.40;1.87;;;19.30;99.90;;;;;;4975555;28;20491;-84
2022/05/23 01:26:16;;;;;;;4.10;2.50;;;19.30;99.90;;;;;;4991815;28;20464;-83
2022/05/23 01:28:42;;;;;;;3.00;2.50;;;19.30;99.90;;;;;;4991699;28;20440;-82
2022/05/23 01:31:10;;;;;;;3.40;2.40;;;19.30;99.90;;;;;;4975607;28;20178;-83
2022/05/23 01:33:36;;;;;;;3.73;2.37;;;19.30;99.90;;;;;;4975333;28;21009;-83
2022/05/23 01:36:03;;;;;;;3.67;2.00;;;19.30;99.90;;;;;;4976988;28;20417;-84
2022/05/23 01:38:29;;;;;;;4.17;2.30;;;19.40;99.90;;;;;;4977275;28;20437;-84
2022/05/23 01:40:56;;;;;;;4.47;2.30;;;19.40;99.90;;;;;;4978241;28;20449;-83
2022/05/23 01:43:22;;;;;;;3.40;2.33;;;19.40;99.90;;;;;;4977173;28;20181;-83
2022/05/23 01:45:48;;;;;;;2.90;2.13;;;19.40;99.90;;;;;;4977563;28;20435;-83
2022/05/23 01:48:13;;;;;;;2.93;2.17;;;19.40;99.90;;;;;;4977030;28;20476;-83
2022/05/23 01:50:39;;;;;;;3.60;1.97;;;19.40;99.90;;;;;;4977203;28;20177;-84
2022/05/23 01:53:05;;;;;;;3.97;2.47;;;19.40;99.90;;;;;;4976829;28;20231;-84
2022/05/23 01:55:32;;;;;;;4.27;2.50;;;19.30;99.90;;;;;;4976713;28;20212;-83
2022/05/23 01:57:59;;;;;;;2.97;2.30;;;19.30;99.90;;;;;;4976598;28;20441;-83
2022/05/23 02:03:09;;;;;;;4.07;2.43;;;19.20;99.90;;;;;;4994734;28;20476;-83
2022/05/23 02:05:38;;;;;;;5.73;3.13;;;19.10;99.90;;;;;;4976310;28;20451;-83
2022/05/23 02:08:04;;;;;;;3.43;2.13;;;19.10;99.90;;;;;;4976538;28;20441;-84
2022/05/23 02:10:30;;;;;;;4.80;2.73;;;19.10;99.90;;;;;;4976242;28;20484;-83
2022/05/23 02:12:56;;;;;;;5.43;2.40;;;19.00;99.90;;;;;;4976469;28;20440;-83
2022/05/23 02:15:22;;;;;;;3.00;2.20;;;19.10;99.90;;;;;;4976128;28;20475;-83
2022/05/23 02:17:51;;;;;;;4.73;2.40;;;19.00;99.90;;;;;;4976109;28;20995;-83
2022/05/23 02:20:17;;;;;;;4.10;2.23;;;19.00;99.90;;;;;;4975876;28;20471;-83
2022/05/23 02:22:43;;;;;;;3.87;2.20;;;19.00;99.90;;;;;;4976111;28;20417;-83
2022/05/23 02:25:09;;;;;;;3.80;2.50;;;18.90;99.90;;;;;;4976062;28;20424;-83
2022/05/23 02:27:35;;;;;;;4.67;2.20;;;19.00;99.90;;;;;;4975457;28;20979;-82
2022/05/23 02:30:04;;;;;;;3.57;2.40;;;19.00;99.90;;;;;;4975817;28;20420;-83
2022/05/23 02:32:30;;;;;;;2.80;2.07;;;19.00;99.90;;;;;;4975648;28;20809;-85
2022/05/23 02:34:56;;;;;;;3.37;2.00;;;19.00;99.90;;;;;;4975884;28;20463;-83
2022/05/23 02:37:25;;;;;;;4.07;2.50;;;19.10;99.90;;;;;;4975222;28;20301;-82
2022/05/23 02:39:50;;;;;;;4.70;2.50;;;19.00;99.90;;;;;;4975585;28;20577;-83
2022/05/23 02:42:17;;;;;;;4.00;2.60;;;19.10;99.90;;;;;;4975483;28;20421;-83
2022/05/23 02:44:42;;;;;;;3.97;2.20;;;19.10;99.90;;;;;;4975387;28;20180;-83
2022/05/23 02:47:08;;;;;;;3.67;2.40;;;19.10;99.90;;;;;;4977828;28;20445;-83
2022/05/23 02:49:34;;;;;;;6.33;2.80;;;19.10;99.90;;;;;;4978776;28;20753;-83
2022/05/23 02:52:00;;;;;;;3.40;2.23;;;19.00;99.90;;;;;;4978954;28;20189;-83
2022/05/23 02:54:26;;;;;;;3.73;2.30;;;19.00;99.90;;;;;;4978075;28;20182;-83
2022/05/23 02:56:51;;;;;;;5.97;2.50;;;19.10;99.90;;;;;;4991566;28;20902;-83
2022/05/23 02:59:17;;;;;;;4.80;2.20;;;19.10;99.90;;;;;;4997768;28;20255;-83
2022/05/23 03:04:27;;;;;;;3.67;2.37;;;19.10;99.90;;;;;;5004181;28;20674;-83
2022/05/23 03:06:53;;;;;;;4.20;2.87;;;19.10;99.90;;;;;;4978121;28;20441;-83
2022/05/23 03:09:18;;;;;;;3.27;2.00;;;19.10;99.90;;;;;;4978105;28;20209;-83
2022/05/23 03:11:44;;;;;;;2.63;2.10;;;19.00;99.90;;;;;;4977952;28;20660;-83
2022/05/23 03:14:10;;;;;;;4.10;2.70;;;19.00;99.90;;;;;;4978231;28;20182;-84
2022/05/23 03:16:36;;;;;;;3.20;2.33;;;19.10;99.90;;;;;;4977821;28;20672;-83
2022/05/23 03:19:01;;;;;;;4.70;2.17;;;19.00;99.90;;;;;;4977847;28;20206;-84
2022/05/23 03:26:59;;;;;;;4.33;2.20;;;19.10;99.90;;;;;;4995321;28;20443;-83
2022/05/23 03:29:25;;;;;;;4.40;2.47;;;19.10;99.90;;;;;;4977854;28;20844;-83
2022/05/23 03:31:51;;;;;;;4.20;2.50;;;19.00;99.90;;;;;;4977679;28;20177;-82
2022/05/23 03:34:16;;;;;;;3.77;2.30;;;19.00;99.90;;;;;;4977675;28;20925;-83
2022/05/23 03:36:42;;;;;;;3.97;3.57;;;19.00;99.90;;;;;;4977231;28;20673;-83
2022/05/23 03:39:08;;;;;;;4.00;2.27;;;18.90;99.90;;;;;;4977375;28;20241;-83
2022/05/23 03:41:34;;;;;;;3.80;1.87;;;18.90;99.90;;;;;;4977303;28;20204;-84
2022/05/23 03:44:00;;;;;;;3.07;2.27;;;19.00;99.90;;;;;;4977300;28;20432;-84
2022/05/23 03:46:27;;;;;;;4.00;2.40;;;19.00;99.90;;;;;;4976962;28;20178;-83
2022/05/23 03:48:53;;;;;;;3.60;2.53;;;18.90;99.90;;;;;;4977252;28;20264;-82
2022/05/23 03:51:19;;;;;;;4.57;2.73;;;18.90;99.90;;;;;;4977227;28;20507;-83
2022/05/23 03:53:44;;;;;;;3.27;2.47;;;18.90;99.90;;;;;;5003972;23;21268;-85
2022/05/23 03:56:10;;;;;;;4.17;3.23;;;18.80;99.90;;;;;;5038865;28;20195;-83
2022/05/23 03:58:36;;;;;;;6.17;2.17;;;18.80;99.90;;;;;;5038201;28;20188;-84
2022/05/23 04:01:23;;;;;;;3.20;2.40;;;18.80;99.90;;;;;;5057127;28;20422;-83
2022/05/23 04:03:49;;;;;;;3.10;2.17;;;18.80;99.90;;;;;;5056369;28;20437;-83
2022/05/23 04:06:15;;;;;;;3.67;2.50;;;18.80;99.90;;;;;;5055979;28;20434;-83
2022/05/23 04:08:41;;;;;;;4.93;2.70;;;18.80;99.90;;;;;;5038099;28;20262;-83
2022/05/23 04:11:07;;;;;;;3.60;2.30;;;18.80;99.90;;;;;;5056314;28;20418;-83
2022/05/23 04:13:34;;;;;;;4.77;2.70;;;18.80;99.90;;;;;;5038751;28;20314;-83
2022/05/23 04:16:00;;;;;;;4.90;2.50;;;18.90;99.90;;;;;;5056624;28;20460;-83
2022/05/23 04:18:25;;;;;;;3.33;2.00;;;18.90;99.90;;;;;;5056038;28;20402;-83
2022/05/23 04:20:51;;;;;;;3.87;2.53;;;18.90;99.90;;;;;;5056313;28;20552;-85
2022/05/23 04:23:17;;;;;;;3.10;2.40;;;19.00;99.90;;;;;;5037800;28;20176;-83
2022/05/23 04:25:45;;;;;;;2.80;2.10;;;19.00;99.90;;;;;;5056172;28;20906;-84
2022/05/23 04:28:13;;;;;;;4.20;2.60;;;19.10;99.90;;;;;;5059276;28;20208;-84
2022/05/23 04:30:39;;;;;;;4.37;2.83;;;19.20;99.90;;;;;;5059498;28;20794;-84
2022/05/23 04:35:51;;;;;;;2.80;1.70;;;19.20;99.90;;;;;;5059403;28;20412;-83
2022/05/23 04:38:17;;;;;;;3.90;2.17;;;19.30;99.90;;;;;;5041218;28;20430;-84
2022/05/23 04:40:44;;;;;;;3.30;2.30;;;19.30;99.90;;;;;;5040860;28;20466;-84
2022/05/23 04:43:09;;;;;;;3.67;2.20;;;19.40;99.90;;;;;;5040916;28;20488;-84
2022/05/23 04:45:35;;;;;;;3.77;2.40;;;19.40;99.90;;;;;;5057985;28;20422;-83
2022/05/23 04:50:45;;;;;;;3.60;2.83;;;19.30;99.90;;;;;;5058447;28;20170;-84
2022/05/23 04:53:10;;;;;;;4.57;2.60;;;19.30;99.90;;;;;;5058081;28;20780;-83
2022/05/23 04:55:38;;;;;;;4.37;2.23;;;19.20;99.90;;;;;;5057817;28;20191;-83
2022/05/23 04:58:04;;;;;;;3.03;2.10;;;19.20;99.90;;;;;;5040113;28;20214;-83
2022/05/23 05:00:30;;;;;;;3.20;2.33;;;19.20;99.90;;;;;;5039395;28;21175;-84
2022/05/23 05:02:59;;;;;;;4.17;2.10;;;19.10;99.90;;;;;;5057985;28;20429;-83
2022/05/23 05:05:27;;;;;;;4.40;2.80;;;19.20;99.90;;;;;;5057934;28;20913;-84
2022/05/23 05:07:54;;;;;;;3.93;2.40;;;19.20;99.90;;;;;;5039657;28;20505;-83
2022/05/23 05:10:21;;;;;;;4.67;2.10;;;19.20;99.90;;;;;;5056294;28;20418;-83
2022/05/23 05:12:48;;;;;;;3.50;2.47;;;19.20;99.90;;;;;;5039870;28;20452;-83
2022/05/23 05:15:13;;;;;;;4.63;2.37;;;19.20;99.90;;;;;;5057255;28;20426;-83
2022/05/23 05:17:39;;;;;;;3.80;2.03;;;19.30;99.90;;;;;;5038684;28;20414;-82
2022/05/23 05:20:05;;;;;;;3.63;2.17;;;19.30;99.90;;;;;;5038946;28;20203;-83
2022/05/23 05:22:30;;;;;;;3.20;2.50;;;19.20;99.90;;;;;;5056586;28;20200;-83
2022/05/23 05:24:56;;;;;;;4.00;2.97;;;19.20;99.90;;;;;;5056969;28;20801;-83
2022/05/23 05:27:21;;;;;;;3.17;2.30;;;19.30;99.90;;;;;;5037781;28;20281;-83
2022/05/23 05:29:47;;;;;;;3.13;2.00;;;19.20;99.90;;;;;;5038360;28;20721;-83
2022/05/23 05:32:18;;;;;;;4.30;2.90;;;19.20;99.90;;;;;;5038155;28;20658;-83
2022/05/23 05:34:47;;;;;;;4.40;2.30;;;19.30;99.90;;;;;;5038197;28;20202;-83
2022/05/23 05:37:22;;;;;;;3.00;2.30;;;19.30;99.90;;;;;;5056025;28;20417;-83
2022/05/23 05:39:50;;;;;;;3.00;2.20;;;19.40;99.90;;;;;;5056146;28;20450;-83
2022/05/23 05:42:27;;;;;;;3.90;2.60;;;19.40;99.90;;;;;;5055670;28;20414;-83
2022/05/23 05:44:58;;;;;;;2.93;2.03;;;19.50;99.90;;;;;;5056108;28;20422;-84
2022/05/23 05:47:25;;;;;;;3.07;2.20;;;19.60;99.90;;;;;;5038193;28;20439;-83
2022/05/23 05:49:55;;;;;;;5.83;2.30;;;19.60;99.90;;;;;;5055085;28;20774;-83
2022/05/23 05:52:23;;;;;;;8.33;2.40;;;19.60;99.90;;;;;;5055500;28;20410;-83
2022/05/23 05:54:49;;;;;;;5.00;2.23;;;19.70;99.90;;;;;;5034084;28;20468;-83
2022/05/23 05:57:15;;;;;;;4.17;2.60;;;19.80;99.90;;;;;;5033373;28;20932;-83
2022/05/23 05:59:41;;;;;;;3.20;2.20;;;19.80;99.90;;;;;;5033641;28;20265;-82
2022/05/23 06:02:07;;;;;;;3.80;2.77;;;19.80;99.90;;;;;;5033543;28;20210;-83
2022/05/23 06:04:36;;;;;;;4.00;2.77;;;19.90;99.90;;;;;;5051574;28;20430;-83
2022/05/23 06:12:31;;;;;;;4.73;2.80;;;20.00;99.90;;;;;;5051851;28;20397;-82
2022/05/23 06:14:57;;;;;;;3.43;2.33;;;20.10;99.90;;;;;;5033601;28;20429;-83
2022/05/23 06:17:23;;;;;;;3.20;2.40;;;20.20;99.90;;;;;;5033284;28;20176;-83
2022/05/23 06:19:49;;;;;;;4.20;2.20;;;20.20;99.90;;;;;;5033526;28;20547;-83
2022/05/23 06:22:16;;;;;;;3.83;3.03;;;20.20;99.90;;;;;;5054626;28;20402;-82
2022/05/23 06:24:44;;;;;;;3.00;2.10;;;20.20;99.90;;;;;;5055171;28;20476;-82
2022/05/23 06:27:10;;;;;;;4.20;2.33;;;20.40;99.90;;;;;;5054862;28;20410;-82
2022/05/23 06:29:36;;;;;;;3.10;2.07;;;20.50;99.90;;;;;;5055117;28;20412;-82
2022/05/23 06:32:03;;;;;;;5.13;3.10;;;20.60;99.90;;;;;;5055134;28;20418;-82
2022/05/23 06:34:29;;;;;;;3.13;2.10;;;20.80;99.90;;;;;;5054875;28;20434;-83
2022/05/23 06:36:55;;;;;;;3.50;2.40;;;20.80;99.90;;;;;;5036864;28;20517;-82
2022/05/23 06:39:21;;;;;;;5.63;2.53;;;20.80;99.90;;;;;;5036763;28;20907;-81
2022/05/23 06:41:47;;;;;;;3.43;2.40;;;20.70;99.90;;;;;;5054849;28;20754;-82
2022/05/23 06:44:13;;;;;;;3.50;2.33;;;20.80;99.90;;;;;;5054545;28;20422;-82
2022/05/23 06:46:38;;;;;;;4.30;2.37;;;20.70;99.90;;;;;;5054487;28;20410;-83
2022/05/23 06:49:06;;;;;;;3.00;2.00;;;20.70;99.90;;;;;;5054617;28;20203;-82
2022/05/23 06:51:35;;;;;;;8.03;2.50;;;20.60;99.90;;;;;;5036851;28;20557;-83
2022/05/23 06:54:01;;;;;;;3.50;2.30;;;20.60;99.90;;;;;;5054323;28;20478;-82
2022/05/23 06:56:28;;;;;;;3.67;2.50;;;20.50;99.90;;;;;;5036285;28;20846;-84
2022/05/23 06:58:54;;;;;;;6.63;2.93;;;20.50;99.90;;;;;;5054355;28;20233;-82
2022/05/23 07:01:19;;;;;;;4.33;2.57;;;20.60;99.90;;;;;;5054740;28;20407;-83
2022/05/23 07:03:45;;;;;;;6.00;2.37;;;20.60;99.90;;;;;;5036805;28;20491;-82
2022/05/23 07:14:24;;;;;;;3.23;2.10;;;20.70;99.90;;;;;;5055722;28;20955;-83
2022/05/23 07:16:50;;;;;;;3.40;2.37;;;20.80;99.90;;;;;;5037234;28;20455;-82
2022/05/23 07:19:16;;;;;;;4.90;2.57;;;20.70;99.90;;;;;;5055669;28;20450;-83
2022/05/23 07:21:41;;;;;;;3.43;2.20;;;20.80;99.90;;;;;;5037858;28;20468;-82
2022/05/23 07:24:07;;;;;;;4.90;2.47;;;20.90;99.90;;;;;;5037330;28;20203;-83
2022/05/23 07:26:32;;;;;;;3.70;2.20;;;20.90;99.90;;;;;;5037107;28;20585;-83
2022/05/23 07:28:58;;;;;;;3.57;2.53;;;21.00;99.90;;;;;;5055093;28;20187;-83
2022/05/23 07:31:25;;;;;;;3.30;2.43;;;21.00;99.90;;;;;;5055055;28;20255;-83
2022/05/23 07:33:50;;;;;;;3.50;2.70;;;21.10;99.90;;;;;;5053900;28;20660;-82
2022/05/23 07:36:17;;;;;;;4.90;2.57;;;21.10;99.90;;;;;;5051999;28;20460;-83
2022/05/23 07:38:43;;;;;;;3.27;2.40;;;21.20;99.90;;;;;;5035564;28;20238;-85
2022/05/23 07:41:10;;;;;;;3.10;2.30;;;21.40;99.90;;;;;;5034213;28;20514;-83
2022/05/23 07:43:39;;;;;;;5.10;2.40;;;21.50;99.90;;;;;;5034411;28;20301;-83
2022/05/23 07:46:12;;;;;;;5.60;3.00;;;21.60;99.90;;;;;;5016426;28;20415;-83
2022/05/23 07:48:40;;;;;;;4.43;3.07;;;21.50;99.90;;;;;;5034745;28;20412;-83
2022/05/23 07:51:06;;;;;;;4.40;2.80;;;21.50;99.90;;;;;;5016698;28;20506;-83
2022/05/23 08:01:45;;;;;;;3.63;2.50;;;21.60;99.90;;;;;;5034588;28;20418;-83
2022/05/23 08:04:11;;;;;;;3.43;2.40;;;21.60;99.90;;;;;;5033995;28;20504;-83
2022/05/23 08:06:36;;;;;;;3.37;2.20;;;21.70;99.90;;;;;;5015815;28;20502;-83
2022/05/23 08:09:03;;;;;;;3.73;2.47;;;21.90;99.90;;;;;;5034184;28;20173;-83
2022/05/23 08:11:28;;;;;;;3.80;2.80;;;22.10;99.90;;;;;;5016177;28;20172;-83
2022/05/23 08:13:55;;;;;;;3.80;2.00;;;22.10;99.90;;;;;;5034309;28;20533;-83
2022/05/23 08:16:22;;;;;;;4.20;2.57;;;22.10;99.90;;;;;;5033352;28;20200;-83
2022/05/23 08:18:47;;;;;;;3.73;2.30;;;22.50;99.90;;;;;;5033745;28;20418;-83
2022/05/23 08:21:14;;;;;;;4.40;1.90;;;22.70;99.90;;;;;;5033524;28;20925;-83
2022/05/23 08:23:40;;;;;;;4.73;2.57;;;22.50;99.90;;;;;;5015956;28;20196;-83
2022/05/23 08:26:06;;;;;;;4.50;2.50;;;22.40;99.90;;;;;;5015968;28;20425;-83
2022/05/23 08:28:31;;;;;;;4.00;2.20;;;22.40;99.90;;;;;;5015955;28;20200;-83
2022/05/23 08:30:57;;;;;;;3.77;2.43;;;22.40;99.90;;;;;;5016027;28;20781;-83
2022/05/23 08:33:23;;;;;;;5.50;2.33;;;22.30;99.90;;;;;;5015111;28;20200;-83
2022/05/23 08:35:49;;;;;;;3.40;2.27;;;22.30;99.90;;;;;;5033524;28;20783;-83
2022/05/23 08:38:14;;;;;;;4.10;2.20;;;22.40;99.90;;;;;;5015333;28;20180;-83
2022/05/23 08:41:01;;;;;;;4.50;2.33;;;22.50;99.90;;;;;;5033148;28;20192;-83
2022/05/23 08:43:36;;;;;;;3.83;2.50;;;22.50;99.90;;;;;;5032448;28;20512;-83
2022/05/23 08:46:02;;;;;;;4.53;3.37;;;22.60;99.90;;;;;;5032862;28;20406;-83
2022/05/23 08:48:43;;;;;;;5.00;3.10;;;22.80;99.90;;;;;;5014842;28;20419;-83
2022/05/23 08:51:42;;;;;;;5.07;3.87;;;23.00;99.90;;;;;;5032742;28;20503;-83
2022/05/23 08:54:30;;;;;;;9.23;6.70;;;23.00;99.90;;;;;;5032184;28;20454;-83
2022/05/23 08:56:58;;;;;;;6.87;5.00;;;23.30;99.90;;;;;;5031468;28;20450;-82
2022/05/23 08:59:42;;;;;;;4.27;3.10;;;23.90;99.90;;;;;;5013854;28;20985;-83
2022/05/23 09:02:11;;;;;;;4.33;2.33;;;25.30;99.90;;;;;;5013829;28;20439;-83
2022/05/23 09:04:44;;;;;;;2.90;2.00;;;27.20;99.90;;;;;;5031760;28;20441;-83
2022/05/23 09:07:19;;;;;;;3.17;2.10;;;28.40;99.90;;;;;;5031298;28;20415;-83
2022/05/23 09:09:44;;;;;;;3.50;2.30;;;28.50;99.90;;;;;;5013727;28;20450;-83
2022/05/23 09:12:14;;;;;;;4.77;2.43;;;28.20;99.90;;;;;;5031591;28;20455;-83
2022/05/23 09:14:40;;;;;;;4.87;2.10;;;27.20;99.90;;;;;;5014048;28;20200;-83
2022/05/23 09:17:12;;;;;;;3.70;2.00;;;26.20;99.90;;;;;;5031236;28;20461;-84
2022/05/23 09:19:51;;;;;;;4.40;2.40;;;25.50;99.90;;;;;;5031521;28;20204;-83
2022/05/23 09:22:20;;;;;;;3.00;2.27;;;25.10;99.90;;;;;;5013707;28;20922;-83
2022/05/23 09:24:51;;;;;;;3.43;2.40;;;24.70;99.90;;;;;;5031469;28;20435;-83
2022/05/23 09:27:37;;;;;;;2.60;1.77;;;24.50;99.90;;;;;;5013254;28;20426;-83
2022/05/23 09:30:06;;;;;;;3.63;2.13;;;24.40;99.90;;;;;;5013738;28;20410;-83
2022/05/23 09:32:43;;;;;;;3.30;2.07;;;25.20;99.90;;;;;;5031188;28;20414;-83
2022/05/23 09:35:16;;;;;;;3.57;2.20;;;27.30;99.90;;;;;;5031057;28;20434;-83
2022/05/23 09:37:46;;;;;;;3.20;2.20;;;28.60;99.90;;;;;;5013187;28;20431;-83
2022/05/23 09:40:25;;;;;;;3.20;2.00;;;28.60;99.90;;;;;;5031101;28;20459;-83
2022/05/23 09:48:22;;;;;;;4.40;2.50;;;27.20;99.90;;;;;;5031384;28;20414;-83
2022/05/23 09:51:05;;;;;;;4.17;2.50;;;27.20;99.90;;;;;;5031029;28;20415;-83
2022/05/23 09:53:38;;;;;;;3.63;2.17;;;27.20;99.90;;;;;;4994622;28;1053466;-83
2022/05/23 09:56:34;;;;;;;3.57;2.27;;;27.30;99.90;;;;;;5038648;23;20754;-85
2022/05/23 09:59:04;;;;;;;3.33;2.30;;;27.20;99.90;;;;;;5000448;28;20650;-85
2022/05/23 10:01:32;;;;;;;2.87;1.97;;;26.70;99.90;;;;;;5018379;28;20411;-85
2022/05/23 10:03:59;;;;;;;3.63;2.50;;;26.50;99.90;;;;;;5016505;28;20489;-86
2022/05/23 10:06:42;;;;;;;2.73;1.90;;;26.40;99.90;;;;;;5000507;28;20554;-85
2022/05/23 10:09:21;;;;;;;4.03;2.33;;;26.20;99.90;;;;;;5001335;28;20947;-85
2022/05/23 10:11:54;;;;;;;3.77;2.63;;;26.30;99.90;;;;;;5000354;28;20423;-85
2022/05/23 10:14:22;;;;;;;3.30;2.47;;;26.20;99.90;;;;;;4995901;28;20502;-85
2022/05/23 10:16:50;;;;;;;2.83;2.00;;;26.10;99.90;;;;;;4985779;28;20452;-85
2022/05/23 10:19:34;;;;;;;5.80;2.63;;;26.10;99.90;;;;;;5001808;28;20543;-86
2022/05/23 10:22:24;;;;;;;3.43;2.40;;;26.00;99.90;;;;;;4997968;28;20439;-85
2022/05/23 10:24:55;;;;;;;4.43;2.30;;;26.00;99.90;;;;;;4990913;28;20439;-86
2022/05/23 10:27:37;;;;;;;4.83;2.60;;;25.90;99.90;;;;;;4997570;28;20423;-86
2022/05/23 10:30:06;;;;;;;3.73;2.60;;;25.70;99.90;;;;;;4997637;28;20803;-85
2022/05/23 10:32:48;;;;;;;4.53;2.10;;;25.80;99.90;;;;;;5015540;28;20420;-88
2022/05/23 10:35:30;;;;;;;4.33;2.40;;;26.10;99.90;;;;;;5015423;28;20443;-85
2022/05/23 10:43:33;;;;;;;3.40;2.50;;;26.80;99.90;;;;;;5015622;28;20474;-87
2022/05/23 10:46:02;;;;;;;3.53;2.27;;;27.10;99.90;;;;;;4997212;28;20811;-86
2022/05/23 10:48:37;;;;;;;4.77;2.43;;;27.20;99.90;;;;;;4997523;28;20455;-86
2022/05/23 10:51:16;;;;;;;3.30;2.20;;;27.10;99.90;;;;;;5015119;28;20408;-87
2022/05/23 10:54:09;;;;;;;3.10;2.20;;;27.20;99.90;;;;;;5015140;28;20434;-88
2022/05/23 10:56:57;;;;;;;3.20;2.10;;;27.20;99.90;;;;;;4996827;28;20448;-88
2022/05/23 10:59:34;;;;;;;3.50;2.10;;;27.10;99.90;;;;;;4997463;28;20454;-87
2022/05/23 11:02:41;;;;;;;3.40;1.87;;;27.10;99.90;;;;;;4997001;28;20412;-87
2022/05/23 11:05:32;;;;;;;2.97;1.97;;;27.10;99.90;;;;;;4997206;28;20475;-86
2022/05/23 11:08:35;;;;;;;3.13;2.03;;;27.10;99.90;;;;;;4997221;28;20419;-87
2022/05/23 11:11:19;;;;;;;3.50;2.30;;;27.00;99.90;;;;;;5015034;28;20412;-87
2022/05/23 11:13:54;;;;;;;3.30;2.27;;;27.10;99.90;;;;;;4997092;28;20522;-87
2022/05/23 11:16:49;;;;;;;3.60;2.40;;;27.20;99.90;;;;;;4997130;28;20408;-88
2022/05/23 11:19:35;;;;;;;3.97;3.03;;;27.10;99.90;;;;;;4984650;28;20954;-87
2022/05/23 11:22:19;;;;;;;3.27;2.03;;;27.00;99.90;;;;;;4997353;28;20436;-86
2022/05/23 11:25:07;;;;;;;3.40;2.23;;;27.00;99.90;;;;;;4997851;28;20447;-86
2022/05/23 11:35:52;;;;;;;4.70;2.40;;;27.60;99.90;;;;;;5016073;28;20590;-86
2022/05/23 11:38:19;;;;;;;3.80;2.47;;;27.60;99.90;;;;;;4997025;28;20416;-87
2022/05/23 11:41:00;;;;;;;3.63;2.37;;;27.70;99.90;;;;;;4997132;28;20459;-84
2022/05/23 11:43:29;;;;;;;3.03;2.67;;;27.80;99.90;;;;;;4999120;28;20919;-84
2022/05/23 11:46:02;;;;;;;5.43;2.77;;;27.80;99.90;;;;;;4998237;28;20974;-87
2022/05/23 11:48:41;;;;;;;4.23;2.30;;;27.70;99.90;;;;;;4999321;28;20495;-84
2022/05/23 11:51:21;;;;;;;3.03;1.90;;;27.60;99.90;;;;;;4997988;28;20418;-84
2022/05/23 11:53:58;;;;;;;3.47;2.20;;;27.50;99.90;;;;;;5014768;28;20396;-82
2022/05/23 11:56:42;;;;;;;5.03;3.07;;;27.30;99.90;;;;;;4996030;28;20490;-83
2022/05/23 11:59:31;;;;;;;4.43;2.33;;;27.20;99.90;;;;;;4996922;28;20420;-82
2022/05/23 12:02:10;;;;;;;3.73;2.70;;;27.00;99.90;;;;;;5013490;28;20428;-83
2022/05/23 12:04:55;;;;;;;3.20;2.60;;;26.90;99.90;;;;;;5014124;28;20431;-83
2022/05/23 12:07:41;;;;;;;4.20;2.80;;;26.80;99.90;;;;;;5015597;28;20420;-83
2022/05/23 12:10:22;;;;;;;3.53;2.60;;;26.80;99.90;;;;;;4999599;28;20427;-83
2022/05/23 12:12:58;;;;;;;4.67;2.70;;;26.90;99.90;;;;;;4997472;28;20799;-82
2022/05/23 12:15:42;;;;;;;3.40;2.60;;;27.10;99.90;;;;;;5015046;28;20432;-82
2022/05/23 12:18:28;;;;;;;2.87;2.13;;;27.40;99.90;;;;;;4996794;28;20793;-81
2022/05/23 12:21:07;;;;;;;3.93;2.47;;;27.70;99.90;;;;;;4997609;28;20463;-82
2022/05/23 12:23:41;;;;;;;3.00;2.63;;;27.50;99.90;;;;;;4997435;28;20404;-82
2022/05/23 12:26:10;;;;;;;3.33;2.57;;;27.30;99.90;;;;;;5015581;28;20470;-83
2022/05/23 12:28:50;;;;;;;4.17;2.60;;;27.30;99.90;;;;;;5000021;28;20412;-83
2022/05/23 12:31:18;;;;;;;3.63;2.50;;;27.10;99.90;;;;;;4998462;28;20415;-82
2022/05/23 12:34:01;;;;;;;4.97;3.23;;;26.70;99.90;;;;;;4998042;28;20503;-83
2022/05/23 12:36:29;;;;;;;4.30;2.67;;;26.60;99.90;;;;;;4998755;28;20919;-83
2022/05/23 12:39:13;;;;;;;3.40;2.50;;;26.50;99.90;;;;;;5002820;28;20424;-83
2022/05/23 12:41:51;;;;;;;3.97;2.43;;;26.30;99.90;;;;;;5005940;28;20522;-83
2022/05/23 12:44:16;;;;;;;3.63;2.73;;;26.10;99.90;;;;;;5018889;28;20923;-83
2022/05/23 12:47:16;;;;;;;4.73;2.50;;;25.90;99.90;;;;;;5001818;28;20431;-84
2022/05/23 12:50:11;;;;;;;4.53;2.67;;;25.80;99.90;;;;;;5000475;28;20184;-83
2022/05/23 12:53:07;;;;;;;5.03;2.60;;;25.30;99.90;;;;;;4999986;28;20435;-83
2022/05/23 12:55:36;;;;;;;4.13;2.07;;;25.10;99.90;;;;;;4998415;28;20488;-85
2022/05/23 12:58:11;;;;;;;5.10;2.43;;;25.00;99.90;;;;;;4999511;28;20424;-82
2022/05/23 13:00:42;;;;;;;4.20;2.23;;;24.80;99.90;;;;;;4999213;28;20575;-82
2022/05/23 13:03:56;;;;;;;3.60;2.40;;;24.60;99.90;;;;;;4998664;28;20450;-83
2022/05/23 13:06:31;;;;;;;4.40;2.83;;;24.50;99.90;;;;;;4936852;29;20951;-82
2022/05/23 13:09:02;;;;;;;4.13;2.33;;;24.30;99.90;;;;;;4920999;29;20420;-82
2022/05/23 13:11:34;;;;;;;4.37;3.10;;;24.20;99.90;;;;;;4965145;28;20515;-82
2022/05/23 13:14:00;;;;;;;5.37;2.40;;;24.20;99.90;;;;;;4998799;28;20420;-82
2022/05/23 13:16:32;;;;;;;6.30;2.43;;;24.00;99.90;;;;;;4998271;28;20411;-81
2022/05/23 13:22:05;;;;;;;5.37;3.50;;;23.80;99.90;;;;;;5017710;28;20412;-83
2022/05/23 13:24:54;;;;;;;3.90;3.07;;;23.50;99.90;;;;;;5017811;28;20439;-83
2022/05/23 13:27:25;;;;;;;5.10;3.20;;;23.00;99.90;;;;;;4998201;28;20518;-82
2022/05/23 13:29:55;;;;;;;4.80;3.23;;;22.50;99.90;;;;;;5015448;28;20404;-83
2022/05/23 13:32:21;;;;;;;6.00;3.67;;;22.20;99.90;;;;;;4998692;28;20436;-83
2022/05/23 13:34:48;;;;;;;5.87;3.20;;;21.90;99.90;;;;;;5017915;28;20999;-83
2022/05/23 13:37:31;;;;;;;3.90;3.40;;;21.60;99.90;;;;;;4999894;28;20420;-83
2022/05/23 13:40:14;;;;;;;5.43;3.43;;;21.40;99.90;;;;;;5001878;28;20494;-83
2022/05/23 13:42:39;;;;;;;8.27;4.97;;;21.20;99.90;;;;;;5003102;28;20926;-83
2022/05/23 13:45:11;;;;;;;7.70;4.20;;;21.20;99.90;;;;;;5002670;28;20471;-83
2022/05/23 13:47:42;;;;;;;7.37;3.90;;;21.20;99.90;;;;;;5002437;28;20276;-84
2022/05/23 13:50:14;;;;;;;6.83;4.30;;;21.10;99.90;;;;;;5020835;28;20842;-83
2022/05/23 13:52:56;;;;;;;5.53;4.40;;;21.10;99.90;;;;;;5001303;28;20807;-83
2022/05/23 13:55:34;;;;;;;6.23;4.00;;;21.10;99.90;;;;;;5000813;28;20474;-82
2022/05/23 13:58:22;;;;;;;5.40;4.20;;;21.30;99.90;;;;;;5016251;28;20432;-83
2022/05/23 14:01:01;;;;;;;9.43;4.90;;;21.50;99.90;;;;;;4997248;28;20452;-83
2022/05/23 14:03:33;;;;;;;6.90;4.17;;;21.80;99.90;;;;;;4997113;28;20447;-81
2022/05/23 14:06:02;;;;;;;6.20;3.60;;;22.00;99.90;;;;;;4997995;28;20483;-85
2022/05/23 14:08:42;;;;;;;9.80;4.67;;;22.10;99.90;;;;;;4996707;28;20462;-84
2022/05/23 14:11:29;;;;;;;7.10;4.80;;;22.40;99.90;;;;;;5016975;28;20408;-84
2022/05/23 14:14:36;;;;;;;7.97;4.87;;;22.60;99.90;;;;;;4998854;28;20404;-84